sensor_id;sensor_type;location;lat;lon;timestamp;P1;durP1;ratioP1;P2;durP2;ratioP2
8556;SDS011;4316;53.840;10.762;2022-10-16T00:01:17;4.17;;;2.10;;
8556;SDS011;4316;53.840;10.762;2022-10-16T00:03:45;4.57;;;2.20;;
8556;SDS011;4316;53.840;10.762;2022-10-16T00:06:11;2.83;;;2.00;;
8556;SDS011;4316;53.840;10.762;2022-10-16T00:08:38;1.73;;;1.60;;
8556;SDS011;4316;53.840;10.762;2022-10-16T00:13:34;1.83;;;1.60;;
8556;SDS011;4316;53.840;10.762;2022-10-16T00:16:02;3.20;;;1.83;;
8556;SDS011;4316;53.840;10.762;2022-10-16T00:18:28;4.33;;;1.67;;
8556;SDS011;4316;53.840;10.762;2022-10-16T00:20:55;4.93;;;1.80;;
8556;SDS011;4316;53.840;10.762;2022-10-16T00:23:26;6.70;;;2.00;;
8556;SDS011;4316;53.840;10.762;2022-10-16T00:25:59;3.83;;;2.00;;
8556;SDS011;4316;53.840;10.762;2022-10-16T00:28:30;2.93;;;1.87;;
8556;SDS011;4316;53.840;10.762;2022-10-16T00:30:56;2.83;;;2.00;;
8556;SDS011;4316;53.840;10.762;2022-10-16T00:33:21;3.07;;;2.10;;
8556;SDS011;4316;53.840;10.762;2022-10-16T00:35:47;4.83;;;2.00;;
8556;SDS011;4316;53.840;10.762;2022-10-16T00:38:14;5.77;;;2.50;;
8556;SDS011;4316;53.840;10.762;2022-10-16T00:40:39;2.60;;;2.30;;
8556;SDS011;4316;53.840;10.762;2022-10-16T00:43:32;5.10;;;2.00;;
8556;SDS011;4316;53.840;10.762;2022-10-16T00:45:58;3.10;;;2.30;;
8556;SDS011;4316;53.840;10.762;2022-10-16T00:48:28;3.43;;;2.40;;
8556;SDS011;4316;53.840;10.762;2022-10-16T00:50:55;2.30;;;1.77;;
8556;SDS011;4316;53.840;10.762;2022-10-16T00:53:23;3.87;;;2.50;;
8556;SDS011;4316;53.840;10.762;2022-10-16T00:55:50;4.43;;;2.53;;
8556;SDS011;4316;53.840;10.762;2022-10-16T00:58:17;2.57;;;2.20;;
8556;SDS011;4316;53.840;10.762;2022-10-16T01:00:42;2.73;;;2.50;;
8556;SDS011;4316;53.840;10.762;2022-10-16T01:03:23;3.07;;;2.63;;
8556;SDS011;4316;53.840;10.762;2022-10-16T01:06:00;5.33;;;2.83;;
8556;SDS011;4316;53.840;10.762;2022-10-16T01:08:35;4.07;;;2.90;;
8556;SDS011;4316;53.840;10.762;2022-10-16T01:11:12;3.20;;;2.90;;
8556;SDS011;4316;53.840;10.762;2022-10-16T01:13:41;5.93;;;2.80;;
8556;SDS011;4316;53.840;10.762;2022-10-16T01:16:17;2.67;;;2.57;;
8556;SDS011;4316;53.840;10.762;2022-10-16T01:18:53;7.10;;;3.20;;
8556;SDS011;4316;53.840;10.762;2022-10-16T01:21:32;5.80;;;3.37;;
8556;SDS011;4316;53.840;10.762;2022-10-16T01:29:53;3.13;;;2.80;;
8556;SDS011;4316;53.840;10.762;2022-10-16T01:35:09;2.73;;;2.50;;
8556;SDS011;4316;53.840;10.762;2022-10-16T01:37:46;7.80;;;2.50;;
8556;SDS011;4316;53.840;10.762;2022-10-16T01:40:23;5.10;;;2.70;;
8556;SDS011;4316;53.840;10.762;2022-10-16T01:43:03;2.43;;;2.00;;
8556;SDS011;4316;53.840;10.762;2022-10-16T01:45:33;3.47;;;2.30;;
8556;SDS011;4316;53.840;10.762;2022-10-16T01:48:01;3.97;;;2.40;;
8556;SDS011;4316;53.840;10.762;2022-10-16T01:50:31;4.20;;;2.63;;
8556;SDS011;4316;53.840;10.762;2022-10-16T01:53:00;2.47;;;2.03;;
8556;SDS011;4316;53.840;10.762;2022-10-16T01:55:29;2.73;;;1.87;;
8556;SDS011;4316;53.840;10.762;2022-10-16T01:57:59;3.27;;;2.40;;
8556;SDS011;4316;53.840;10.762;2022-10-16T02:00:28;4.73;;;2.27;;
8556;SDS011;4316;53.840;10.762;2022-10-16T02:02:54;6.17;;;2.30;;
8556;SDS011;4316;53.840;10.762;2022-10-16T02:08:06;8.83;;;2.33;;
8556;SDS011;4316;53.840;10.762;2022-10-16T14:30:54;4.18;;;1.10;;
8556;SDS011;4316;53.840;10.762;2022-10-16T14:33:23;4.78;;;1.35;;
8556;SDS011;4316;53.840;10.762;2022-10-16T14:36:01;5.03;;;1.63;;
8556;SDS011;4316;53.840;10.762;2022-10-16T14:38:36;4.68;;;1.95;;
8556;SDS011;4316;53.840;10.762;2022-10-16T14:41:03;10.80;;;1.77;;
8556;SDS011;4316;53.840;10.762;2022-10-16T14:43:36;5.25;;;2.30;;
8556;SDS011;4316;53.840;10.762;2022-10-16T14:46:15;2.47;;;1.50;;
8556;SDS011;4316;53.840;10.762;2022-10-16T14:48:43;5.88;;;1.88;;
8556;SDS011;4316;53.840;10.762;2022-10-16T14:51:16;4.63;;;1.52;;
8556;SDS011;4316;53.840;10.762;2022-10-16T14:53:43;3.47;;;1.38;;
8556;SDS011;4316;53.840;10.762;2022-10-16T14:56:09;7.85;;;1.60;;
8556;SDS011;4316;53.840;10.762;2022-10-16T14:58:42;12.85;;;2.33;;
8556;SDS011;4316;53.840;10.762;2022-10-16T15:01:09;6.82;;;1.70;;
8556;SDS011;4316;53.840;10.762;2022-10-16T15:03:37;9.85;;;2.13;;
8556;SDS011;4316;53.840;10.762;2022-10-16T15:06:09;4.63;;;1.20;;
8556;SDS011;4316;53.840;10.762;2022-10-16T15:08:37;6.28;;;1.65;;
8556;SDS011;4316;53.840;10.762;2022-10-16T15:11:03;4.00;;;1.33;;
8556;SDS011;4316;53.840;10.762;2022-10-16T15:13:29;2.72;;;1.42;;
8556;SDS011;4316;53.840;10.762;2022-10-16T15:15:55;4.30;;;1.38;;
8556;SDS011;4316;53.840;10.762;2022-10-16T15:18:21;6.22;;;1.73;;
8556;SDS011;4316;53.840;10.762;2022-10-16T15:20:48;5.28;;;1.60;;
8556;SDS011;4316;53.840;10.762;2022-10-16T15:23:16;4.63;;;1.80;;
8556;SDS011;4316;53.840;10.762;2022-10-16T15:25:47;4.40;;;1.65;;
8556;SDS011;4316;53.840;10.762;2022-10-16T15:28:14;5.95;;;1.90;;
8556;SDS011;4316;53.840;10.762;2022-10-16T15:30:41;3.72;;;1.55;;
8556;SDS011;4316;53.840;10.762;2022-10-16T15:33:16;3.83;;;2.00;;
8556;SDS011;4316;53.840;10.762;2022-10-16T15:35:45;8.38;;;1.75;;
8556;SDS011;4316;53.840;10.762;2022-10-16T15:38:13;8.63;;;2.28;;
8556;SDS011;4316;53.840;10.762;2022-10-16T15:40:40;6.47;;;1.98;;
8556;SDS011;4316;53.840;10.762;2022-10-16T15:43:06;4.78;;;2.60;;
8556;SDS011;4316;53.840;10.762;2022-10-16T15:45:32;6.20;;;2.00;;
8556;SDS011;4316;53.840;10.762;2022-10-16T15:47:58;5.65;;;1.77;;
8556;SDS011;4316;53.840;10.762;2022-10-16T15:50:23;8.70;;;2.17;;
8556;SDS011;4316;53.840;10.762;2022-10-16T15:52:50;3.75;;;1.55;;
8556;SDS011;4316;53.840;10.762;2022-10-16T15:55:16;3.83;;;1.90;;
8556;SDS011;4316;53.840;10.762;2022-10-16T15:57:43;7.45;;;1.55;;
8556;SDS011;4316;53.840;10.762;2022-10-16T16:00:11;4.18;;;1.90;;
8556;SDS011;4316;53.840;10.762;2022-10-16T16:02:39;3.75;;;1.83;;
8556;SDS011;4316;53.840;10.762;2022-10-16T16:05:06;2.60;;;1.08;;
8556;SDS011;4316;53.840;10.762;2022-10-16T16:07:36;7.07;;;1.95;;
8556;SDS011;4316;53.840;10.762;2022-10-16T16:10:03;10.38;;;4.40;;
8556;SDS011;4316;53.840;10.762;2022-10-16T16:12:32;5.97;;;2.30;;
8556;SDS011;4316;53.840;10.762;2022-10-16T16:14:58;9.77;;;2.75;;
8556;SDS011;4316;53.840;10.762;2022-10-16T16:17:24;8.98;;;2.25;;
8556;SDS011;4316;53.840;10.762;2022-10-16T16:19:50;7.43;;;2.03;;
8556;SDS011;4316;53.840;10.762;2022-10-16T16:22:17;7.18;;;2.45;;
8556;SDS011;4316;53.840;10.762;2022-10-16T16:24:42;6.55;;;1.90;;
8556;SDS011;4316;53.840;10.762;2022-10-16T16:27:08;11.77;;;5.40;;
8556;SDS011;4316;53.840;10.762;2022-10-16T16:29:34;5.85;;;3.08;;
8556;SDS011;4316;53.840;10.762;2022-10-16T16:32:00;14.02;;;5.93;;
8556;SDS011;4316;53.840;10.762;2022-10-16T16:34:27;12.27;;;5.13;;
8556;SDS011;4316;53.840;10.762;2022-10-16T16:36:53;7.57;;;3.22;;
8556;SDS011;4316;53.840;10.762;2022-10-16T16:39:20;5.18;;;2.50;;
8556;SDS011;4316;53.840;10.762;2022-10-16T16:41:46;8.82;;;2.55;;
8556;SDS011;4316;53.840;10.762;2022-10-16T16:44:13;5.88;;;1.77;;
8556;SDS011;4316;53.840;10.762;2022-10-16T16:46:40;5.13;;;2.17;;
8556;SDS011;4316;53.840;10.762;2022-10-16T16:49:08;6.15;;;1.45;;
8556;SDS011;4316;53.840;10.762;2022-10-16T16:51:35;4.18;;;2.00;;
8556;SDS011;4316;53.840;10.762;2022-10-16T16:54:01;6.53;;;2.45;;
8556;SDS011;4316;53.840;10.762;2022-10-16T16:56:27;9.45;;;6.25;;
8556;SDS011;4316;53.840;10.762;2022-10-16T16:58:54;5.55;;;3.83;;
8556;SDS011;4316;53.840;10.762;2022-10-16T17:01:22;16.88;;;2.65;;
8556;SDS011;4316;53.840;10.762;2022-10-16T17:03:50;9.63;;;2.05;;
8556;SDS011;4316;53.840;10.762;2022-10-16T17:06:18;6.50;;;2.50;;
8556;SDS011;4316;53.840;10.762;2022-10-16T17:08:45;8.90;;;2.70;;
8556;SDS011;4316;53.840;10.762;2022-10-16T17:11:15;5.45;;;2.70;;
8556;SDS011;4316;53.840;10.762;2022-10-16T17:13:43;4.57;;;2.42;;
8556;SDS011;4316;53.840;10.762;2022-10-16T17:16:09;9.80;;;4.57;;
8556;SDS011;4316;53.840;10.762;2022-10-16T17:18:35;13.50;;;6.50;;
8556;SDS011;4316;53.840;10.762;2022-10-16T17:21:02;10.38;;;5.18;;
8556;SDS011;4316;53.840;10.762;2022-10-16T17:23:30;9.47;;;4.60;;
8556;SDS011;4316;53.840;10.762;2022-10-16T17:25:56;13.40;;;5.67;;
8556;SDS011;4316;53.840;10.762;2022-10-16T17:28:28;7.83;;;4.10;;
8556;SDS011;4316;53.840;10.762;2022-10-16T17:30:53;7.40;;;4.00;;
8556;SDS011;4316;53.840;10.762;2022-10-16T17:33:19;6.57;;;3.80;;
8556;SDS011;4316;53.840;10.762;2022-10-16T17:35:45;10.03;;;3.80;;
8556;SDS011;4316;53.840;10.762;2022-10-16T17:38:11;4.97;;;3.23;;
8556;SDS011;4316;53.840;10.762;2022-10-16T17:40:39;7.63;;;3.63;;
8556;SDS011;4316;53.840;10.762;2022-10-16T17:43:05;8.47;;;3.20;;
8556;SDS011;4316;53.840;10.762;2022-10-16T17:45:31;8.47;;;3.10;;
8556;SDS011;4316;53.840;10.762;2022-10-16T17:48:04;8.03;;;3.13;;
8556;SDS011;4316;53.840;10.762;2022-10-16T17:50:30;4.67;;;2.70;;
8556;SDS011;4316;53.840;10.762;2022-10-16T17:52:56;7.97;;;2.33;;
8556;SDS011;4316;53.840;10.762;2022-10-16T17:55:22;7.07;;;2.20;;
8556;SDS011;4316;53.840;10.762;2022-10-16T17:57:48;8.93;;;2.90;;
8556;SDS011;4316;53.840;10.762;2022-10-16T18:00:13;10.90;;;3.57;;
8556;SDS011;4316;53.840;10.762;2022-10-16T18:02:39;12.67;;;3.03;;
8556;SDS011;4316;53.840;10.762;2022-10-16T18:05:07;12.37;;;2.63;;
8556;SDS011;4316;53.840;10.762;2022-10-16T18:07:33;12.57;;;2.77;;
8556;SDS011;4316;53.840;10.762;2022-10-16T18:09:59;5.63;;;2.80;;
8556;SDS011;4316;53.840;10.762;2022-10-16T18:12:28;4.13;;;2.53;;
8556;SDS011;4316;53.840;10.762;2022-10-16T18:14:54;7.13;;;2.80;;
8556;SDS011;4316;53.840;10.762;2022-10-16T18:17:25;4.10;;;2.90;;
8556;SDS011;4316;53.840;10.762;2022-10-16T18:19:51;6.90;;;2.50;;
8556;SDS011;4316;53.840;10.762;2022-10-16T18:22:17;5.43;;;2.53;;
8556;SDS011;4316;53.840;10.762;2022-10-16T18:24:43;5.30;;;2.70;;
8556;SDS011;4316;53.840;10.762;2022-10-16T18:27:08;6.90;;;2.40;;
8556;SDS011;4316;53.840;10.762;2022-10-16T18:29:34;3.23;;;2.20;;
8556;SDS011;4316;53.840;10.762;2022-10-16T18:32:01;8.67;;;3.33;;
8556;SDS011;4316;53.840;10.762;2022-10-16T18:34:27;4.20;;;2.67;;
8556;SDS011;4316;53.840;10.762;2022-10-16T18:36:53;5.60;;;3.50;;
8556;SDS011;4316;53.840;10.762;2022-10-16T18:39:20;7.43;;;3.63;;
8556;SDS011;4316;53.840;10.762;2022-10-16T18:41:48;11.03;;;3.90;;
8556;SDS011;4316;53.840;10.762;2022-10-16T18:44:16;12.23;;;3.63;;
8556;SDS011;4316;53.840;10.762;2022-10-16T18:46:45;9.17;;;3.73;;
8556;SDS011;4316;53.840;10.762;2022-10-16T18:49:10;17.93;;;3.90;;
8556;SDS011;4316;53.840;10.762;2022-10-16T18:51:37;7.17;;;3.83;;
8556;SDS011;4316;53.840;10.762;2022-10-16T18:54:09;8.97;;;5.00;;
8556;SDS011;4316;53.840;10.762;2022-10-16T18:56:36;19.30;;;5.13;;
8556;SDS011;4316;53.840;10.762;2022-10-16T18:59:05;9.33;;;5.20;;
8556;SDS011;4316;53.840;10.762;2022-10-16T19:01:33;10.67;;;4.50;;
8556;SDS011;4316;53.840;10.762;2022-10-16T19:04:01;8.60;;;3.17;;
8556;SDS011;4316;53.840;10.762;2022-10-16T19:06:31;18.03;;;3.40;;
8556;SDS011;4316;53.840;10.762;2022-10-16T19:08:58;11.97;;;3.53;;
8556;SDS011;4316;53.840;10.762;2022-10-16T19:11:24;5.37;;;3.47;;
8556;SDS011;4316;53.840;10.762;2022-10-16T19:13:51;10.60;;;3.57;;
8556;SDS011;4316;53.840;10.762;2022-10-16T19:16:20;11.20;;;3.50;;
8556;SDS011;4316;53.840;10.762;2022-10-16T19:18:51;11.70;;;3.33;;
8556;SDS011;4316;53.840;10.762;2022-10-16T19:21:19;6.40;;;3.17;;
8556;SDS011;4316;53.840;10.762;2022-10-16T19:23:48;5.93;;;3.23;;
8556;SDS011;4316;53.840;10.762;2022-10-16T19:26:17;10.27;;;3.40;;
8556;SDS011;4316;53.840;10.762;2022-10-16T19:28:44;10.40;;;3.20;;
8556;SDS011;4316;53.840;10.762;2022-10-16T19:31:14;8.47;;;3.23;;
8556;SDS011;4316;53.840;10.762;2022-10-16T19:33:42;12.53;;;3.10;;
8556;SDS011;4316;53.840;10.762;2022-10-16T19:36:09;12.47;;;2.90;;
8556;SDS011;4316;53.840;10.762;2022-10-16T19:38:37;11.67;;;2.90;;
8556;SDS011;4316;53.840;10.762;2022-10-16T19:41:08;5.33;;;2.73;;
8556;SDS011;4316;53.840;10.762;2022-10-16T19:43:35;14.07;;;3.90;;
8556;SDS011;4316;53.840;10.762;2022-10-16T19:46:02;8.03;;;3.50;;
8556;SDS011;4316;53.840;10.762;2022-10-16T19:48:29;7.93;;;4.03;;
8556;SDS011;4316;53.840;10.762;2022-10-16T19:50:54;5.50;;;3.43;;
8556;SDS011;4316;53.840;10.762;2022-10-16T19:53:20;6.57;;;3.60;;
8556;SDS011;4316;53.840;10.762;2022-10-16T19:55:46;7.93;;;3.97;;
8556;SDS011;4316;53.840;10.762;2022-10-16T19:58:11;10.37;;;4.07;;
8556;SDS011;4316;53.840;10.762;2022-10-16T20:00:40;14.80;;;4.60;;
8556;SDS011;4316;53.840;10.762;2022-10-16T20:03:06;13.40;;;4.10;;
8556;SDS011;4316;53.840;10.762;2022-10-16T20:05:32;8.63;;;3.67;;
8556;SDS011;4316;53.840;10.762;2022-10-16T20:07:58;8.23;;;3.70;;
8556;SDS011;4316;53.840;10.762;2022-10-16T20:10:23;3.83;;;2.67;;
8556;SDS011;4316;53.840;10.762;2022-10-16T20:12:50;8.10;;;2.83;;
8556;SDS011;4316;53.840;10.762;2022-10-16T20:15:16;6.87;;;2.93;;
8556;SDS011;4316;53.840;10.762;2022-10-16T20:17:42;10.43;;;3.47;;
8556;SDS011;4316;53.840;10.762;2022-10-16T20:20:08;14.37;;;4.07;;
8556;SDS011;4316;53.840;10.762;2022-10-16T20:22:34;10.43;;;3.37;;
8556;SDS011;4316;53.840;10.762;2022-10-16T20:25:00;19.63;;;4.13;;
8556;SDS011;4316;53.840;10.762;2022-10-16T20:27:26;12.67;;;2.97;;
8556;SDS011;4316;53.840;10.762;2022-10-16T20:29:53;8.03;;;2.50;;
8556;SDS011;4316;53.840;10.762;2022-10-16T20:32:19;12.30;;;2.93;;
8556;SDS011;4316;53.840;10.762;2022-10-16T20:34:45;15.53;;;2.73;;
8556;SDS011;4316;53.840;10.762;2022-10-16T20:37:16;6.00;;;2.63;;
8556;SDS011;4316;53.840;10.762;2022-10-16T20:39:42;12.97;;;3.63;;
8556;SDS011;4316;53.840;10.762;2022-10-16T20:42:09;3.93;;;2.53;;
8556;SDS011;4316;53.840;10.762;2022-10-16T20:44:35;5.83;;;2.50;;
8556;SDS011;4316;53.840;10.762;2022-10-16T20:47:01;8.77;;;2.87;;
8556;SDS011;4316;53.840;10.762;2022-10-16T20:49:27;9.17;;;2.53;;
8556;SDS011;4316;53.840;10.762;2022-10-16T20:51:53;5.57;;;2.60;;
8556;SDS011;4316;53.840;10.762;2022-10-16T20:54:19;12.37;;;3.13;;
8556;SDS011;4316;53.840;10.762;2022-10-16T20:56:45;12.60;;;3.60;;
8556;SDS011;4316;53.840;10.762;2022-10-16T20:59:12;15.40;;;2.70;;
8556;SDS011;4316;53.840;10.762;2022-10-16T21:01:39;14.13;;;2.70;;
8556;SDS011;4316;53.840;10.762;2022-10-16T21:04:06;14.60;;;2.87;;
8556;SDS011;4316;53.840;10.762;2022-10-16T21:06:33;16.47;;;2.53;;
8556;SDS011;4316;53.840;10.762;2022-10-16T21:09:00;9.57;;;2.90;;
8556;SDS011;4316;53.840;10.762;2022-10-16T21:11:28;15.07;;;3.30;;
8556;SDS011;4316;53.840;10.762;2022-10-16T21:13:56;7.47;;;2.70;;
8556;SDS011;4316;53.840;10.762;2022-10-16T21:16:24;10.57;;;2.20;;
8556;SDS011;4316;53.840;10.762;2022-10-16T21:18:49;7.30;;;2.57;;
8556;SDS011;4316;53.840;10.762;2022-10-16T21:21:38;10.23;;;2.60;;
8556;SDS011;4316;53.840;10.762;2022-10-16T21:24:03;5.23;;;2.53;;
8556;SDS011;4316;53.840;10.762;2022-10-16T21:26:30;4.83;;;2.00;;
8556;SDS011;4316;53.840;10.762;2022-10-16T21:28:57;5.07;;;2.00;;
8556;SDS011;4316;53.840;10.762;2022-10-16T21:31:28;4.70;;;2.33;;
8556;SDS011;4316;53.840;10.762;2022-10-16T21:33:54;15.50;;;2.50;;
8556;SDS011;4316;53.840;10.762;2022-10-16T21:36:27;6.40;;;2.50;;
8556;SDS011;4316;53.840;10.762;2022-10-16T21:38:54;12.63;;;2.17;;
8556;SDS011;4316;53.840;10.762;2022-10-16T21:41:27;9.57;;;2.27;;
8556;SDS011;4316;53.840;10.762;2022-10-16T21:43:54;10.93;;;2.43;;
8556;SDS011;4316;53.840;10.762;2022-10-16T21:46:22;10.85;;;2.50;;
8556;SDS011;4316;53.840;10.762;2022-10-16T21:48:53;3.83;;;2.13;;
8556;SDS011;4316;53.840;10.762;2022-10-16T21:51:19;7.37;;;2.73;;
8556;SDS011;4316;53.840;10.762;2022-10-16T21:53:49;12.17;;;3.43;;
8556;SDS011;4316;53.840;10.762;2022-10-16T21:56:15;5.23;;;3.10;;
8556;SDS011;4316;53.840;10.762;2022-10-16T21:58:42;10.80;;;2.60;;
8556;SDS011;4316;53.840;10.762;2022-10-16T22:01:11;8.17;;;2.70;;
8556;SDS011;4316;53.840;10.762;2022-10-16T22:03:43;7.60;;;2.70;;
8556;SDS011;4316;53.840;10.762;2022-10-16T22:06:13;7.63;;;3.40;;
8556;SDS011;4316;53.840;10.762;2022-10-16T22:08:41;11.47;;;3.17;;
8556;SDS011;4316;53.840;10.762;2022-10-16T22:11:08;7.93;;;3.77;;
8556;SDS011;4316;53.840;10.762;2022-10-16T22:13:39;9.10;;;3.43;;
8556;SDS011;4316;53.840;10.762;2022-10-16T22:16:05;5.73;;;3.00;;
8556;SDS011;4316;53.840;10.762;2022-10-16T22:18:32;6.97;;;2.80;;
8556;SDS011;4316;53.840;10.762;2022-10-16T22:21:00;10.37;;;3.20;;
8556;SDS011;4316;53.840;10.762;2022-10-16T22:23:26;6.30;;;3.00;;
8556;SDS011;4316;53.840;10.762;2022-10-16T22:25:57;13.13;;;2.83;;
8556;SDS011;4316;53.840;10.762;2022-10-16T22:28:27;9.93;;;3.50;;
8556;SDS011;4316;53.840;10.762;2022-10-16T22:30:53;9.33;;;2.93;;
8556;SDS011;4316;53.840;10.762;2022-10-16T22:33:18;11.53;;;2.97;;
8556;SDS011;4316;53.840;10.762;2022-10-16T22:35:44;5.73;;;2.83;;
8556;SDS011;4316;53.840;10.762;2022-10-16T22:38:10;8.37;;;3.10;;
8556;SDS011;4316;53.840;10.762;2022-10-16T22:40:36;11.07;;;3.03;;
8556;SDS011;4316;53.840;10.762;2022-10-16T22:43:03;7.20;;;2.90;;
8556;SDS011;4316;53.840;10.762;2022-10-16T22:45:32;6.70;;;3.73;;
8556;SDS011;4316;53.840;10.762;2022-10-16T22:47:59;6.97;;;2.70;;
8556;SDS011;4316;53.840;10.762;2022-10-16T22:50:25;8.40;;;3.37;;
8556;SDS011;4316;53.840;10.762;2022-10-16T22:52:52;7.17;;;3.00;;
8556;SDS011;4316;53.840;10.762;2022-10-16T22:55:18;7.73;;;2.90;;
8556;SDS011;4316;53.840;10.762;2022-10-16T22:57:44;4.43;;;2.43;;
8556;SDS011;4316;53.840;10.762;2022-10-16T23:00:12;6.43;;;2.93;;
8556;SDS011;4316;53.840;10.762;2022-10-16T23:02:40;3.17;;;2.33;;
8556;SDS011;4316;53.840;10.762;2022-10-16T23:05:07;6.77;;;2.90;;
8556;SDS011;4316;53.840;10.762;2022-10-16T23:07:34;8.93;;;2.50;;
8556;SDS011;4316;53.840;10.762;2022-10-16T23:10:01;7.27;;;2.53;;
8556;SDS011;4316;53.840;10.762;2022-10-16T23:12:27;8.87;;;2.70;;
8556;SDS011;4316;53.840;10.762;2022-10-16T23:14:53;5.40;;;2.37;;
8556;SDS011;4316;53.840;10.762;2022-10-16T23:17:19;7.70;;;2.67;;
8556;SDS011;4316;53.840;10.762;2022-10-16T23:19:45;7.20;;;2.60;;
8556;SDS011;4316;53.840;10.762;2022-10-16T23:22:11;6.30;;;2.40;;
8556;SDS011;4316;53.840;10.762;2022-10-16T23:24:36;8.63;;;2.47;;
8556;SDS011;4316;53.840;10.762;2022-10-16T23:27:02;11.70;;;2.70;;
8556;SDS011;4316;53.840;10.762;2022-10-16T23:29:28;5.87;;;2.57;;
8556;SDS011;4316;53.840;10.762;2022-10-16T23:31:54;13.33;;;2.83;;
8556;SDS011;4316;53.840;10.762;2022-10-16T23:34:21;13.00;;;2.47;;
8556;SDS011;4316;53.840;10.762;2022-10-16T23:36:50;12.40;;;2.40;;
8556;SDS011;4316;53.840;10.762;2022-10-16T23:39:16;8.03;;;2.50;;
8556;SDS011;4316;53.840;10.762;2022-10-16T23:41:42;5.03;;;2.30;;
8556;SDS011;4316;53.840;10.762;2022-10-16T23:44:08;9.67;;;2.57;;
8556;SDS011;4316;53.840;10.762;2022-10-16T23:46:33;13.23;;;2.90;;
8556;SDS011;4316;53.840;10.762;2022-10-16T23:48:59;9.40;;;2.47;;
8556;SDS011;4316;53.840;10.762;2022-10-16T23:51:25;15.83;;;2.50;;
8556;SDS011;4316;53.840;10.762;2022-10-16T23:53:51;9.03;;;2.17;;
8556;SDS011;4316;53.840;10.762;2022-10-16T23:56:18;8.90;;;2.33;;
8556;SDS011;4316;53.840;10.762;2022-10-16T23:58:43;7.23;;;2.10;;
